Air Navigation Services of Czech Republic
Airport: LKKB Updated:  23.09.2018 23:01:06  UTC
 METAR LKKB 23.09. 23:00 ...
METAR LKKB 232300Z 31011G23KT 280V350 9999 BKN022 10/06 Q1012 NOSIG RMK WHT=
 TAF LKKB 23.09. 17:00 ...
TAF LKKB 231700Z 2318/2418 22016KT 9999 BKN025      TEMPO 2318/2404 22018G36KT 7000 RA SCT012 BKN024      TEMPO 2318/2322 29020G48KT 4000 SHRA SCT010 BKN015      PROB40 TEMPO 2318/2321 30030G55KT 2000 TSRA SCT014CB BKN016      BECMG 2402/2404 31016KT      PROB40 TEMPO 2404/2412 30016G36KT 8000 SHRA BKN018=